sensor_id;sensor_type;location;lat;lon;timestamp;temperature;humidity
24252;DHT22;12380;51.118;4.176;2023-03-29T00:00:21;7.80;1.00
24252;DHT22;12380;51.118;4.176;2023-03-29T00:02:52;7.80;99.90
24252;DHT22;12380;51.118;4.176;2023-03-29T00:05:21;7.90;99.90
24252;DHT22;12380;51.118;4.176;2023-03-29T00:07:49;7.90;1.00
24252;DHT22;12380;51.118;4.176;2023-03-29T00:10:19;7.80;99.90
24252;DHT22;12380;51.118;4.176;2023-03-29T00:12:46;7.90;99.90
24252;DHT22;12380;51.118;4.176;2023-03-29T00:15:16;7.90;99.90
24252;DHT22;12380;51.118;4.176;2023-03-29T00:17:45;7.90;99.90
24252;DHT22;12380;51.118;4.176;2023-03-29T00:20:11;7.90;99.90
24252;DHT22;12380;51.118;4.176;2023-03-29T00:22:40;7.90;99.90
24252;DHT22;12380;51.118;4.176;2023-03-29T00:25:10;7.90;99.90
24252;DHT22;12380;51.118;4.176;2023-03-29T00:27:36;7.80;99.90
24252;DHT22;12380;51.118;4.176;2023-03-29T00:30:06;7.90;99.90
24252;DHT22;12380;51.118;4.176;2023-03-29T00:32:36;8.00;1.00
24252;DHT22;12380;51.118;4.176;2023-03-29T00:35:01;7.90;99.90
24252;DHT22;12380;51.118;4.176;2023-03-29T00:37:29;7.80;99.90
24252;DHT22;12380;51.118;4.176;2023-03-29T00:39:56;7.80;99.90
24252;DHT22;12380;51.118;4.176;2023-03-29T00:42:24;7.90;99.90
24252;DHT22;12380;51.118;4.176;2023-03-29T00:47:49;8.00;1.00
24252;DHT22;12380;51.118;4.176;2023-03-29T00:50:22;7.90;1.00
24252;DHT22;12380;51.118;4.176;2023-03-29T00:52:59;7.90;1.00
24252;DHT22;12380;51.118;4.176;2023-03-29T00:55:30;8.00;1.00
24252;DHT22;12380;51.118;4.176;2023-03-29T00:58:00;7.90;1.00
24252;DHT22;12380;51.118;4.176;2023-03-29T01:00:36;8.00;1.00
24252;DHT22;12380;51.118;4.176;2023-03-29T01:03:07;8.00;1.00
24252;DHT22;12380;51.118;4.176;2023-03-29T01:05:40;8.00;1.00
24252;DHT22;12380;51.118;4.176;2023-03-29T01:08:15;8.00;1.00
24252;DHT22;12380;51.118;4.176;2023-03-29T01:10:50;7.90;1.00
24252;DHT22;12380;51.118;4.176;2023-03-29T01:13:24;8.00;1.00
24252;DHT22;12380;51.118;4.176;2023-03-29T01:15:53;8.00;90.20
24252;DHT22;12380;51.118;4.176;2023-03-29T01:18:21;7.90;99.90
24252;DHT22;12380;51.118;4.176;2023-03-29T01:26:52;7.80;99.90
24252;DHT22;12380;51.118;4.176;2023-03-29T01:29:23;7.80;99.90
24252;DHT22;12380;51.118;4.176;2023-03-29T01:32:26;7.80;99.90
24252;DHT22;12380;51.118;4.176;2023-03-29T01:34:52;7.80;1.00
24252;DHT22;12380;51.118;4.176;2023-03-29T01:37:28;7.90;99.90
24252;DHT22;12380;51.118;4.176;2023-03-29T01:39:57;7.90;1.00
24252;DHT22;12380;51.118;4.176;2023-03-29T01:42:31;7.90;89.80
24252;DHT22;12380;51.118;4.176;2023-03-29T01:47:59;8.10;99.90
24252;DHT22;12380;51.118;4.176;2023-03-29T01:50:52;8.10;99.90
24252;DHT22;12380;51.118;4.176;2023-03-29T01:53:38;8.10;99.90
24252;DHT22;12380;51.118;4.176;2023-03-29T01:56:09;8.20;99.90
24252;DHT22;12380;51.118;4.176;2023-03-29T01:58:45;8.20;99.90
24252;DHT22;12380;51.118;4.176;2023-03-29T02:01:15;8.20;99.90
24252;DHT22;12380;51.118;4.176;2023-03-29T02:03:48;8.30;99.90
24252;DHT22;12380;51.118;4.176;2023-03-29T02:06:20;8.20;99.90
24252;DHT22;12380;51.118;4.176;2023-03-29T02:08:47;8.20;99.90
24252;DHT22;12380;51.118;4.176;2023-03-29T02:11:14;8.20;99.90
24252;DHT22;12380;51.118;4.176;2023-03-29T02:13:40;8.10;99.90
24252;DHT22;12380;51.118;4.176;2023-03-29T02:16:10;8.10;99.90
24252;DHT22;12380;51.118;4.176;2023-03-29T02:18:41;8.00;99.90
24252;DHT22;12380;51.118;4.176;2023-03-29T02:21:18;8.00;99.90
24252;DHT22;12380;51.118;4.176;2023-03-29T02:23:48;8.10;99.90
24252;DHT22;12380;51.118;4.176;2023-03-29T02:26:14;8.20;99.90
24252;DHT22;12380;51.118;4.176;2023-03-29T02:28:46;8.20;99.90
24252;DHT22;12380;51.118;4.176;2023-03-29T02:38:59;8.30;99.90
24252;DHT22;12380;51.118;4.176;2023-03-29T02:41:27;8.20;99.90
24252;DHT22;12380;51.118;4.176;2023-03-29T02:43:57;8.20;99.90
24252;DHT22;12380;51.118;4.176;2023-03-29T02:46:25;8.10;99.90
24252;DHT22;12380;51.118;4.176;2023-03-29T02:48:52;8.20;99.90
24252;DHT22;12380;51.118;4.176;2023-03-29T02:51:22;8.20;99.90
24252;DHT22;12380;51.118;4.176;2023-03-29T02:54:10;8.30;99.90
24252;DHT22;12380;51.118;4.176;2023-03-29T02:56:47;8.20;99.90
24252;DHT22;12380;51.118;4.176;2023-03-29T02:59:15;8.20;99.90
24252;DHT22;12380;51.118;4.176;2023-03-29T03:01:41;8.30;99.90
24252;DHT22;12380;51.118;4.176;2023-03-29T03:04:08;8.20;99.90
24252;DHT22;12380;51.118;4.176;2023-03-29T03:06:39;8.30;99.90
24252;DHT22;12380;51.118;4.176;2023-03-29T03:09:08;8.20;99.90
24252;DHT22;12380;51.118;4.176;2023-03-29T03:11:34;8.20;99.90
24252;DHT22;12380;51.118;4.176;2023-03-29T03:14:03;8.20;99.90
24252;DHT22;12380;51.118;4.176;2023-03-29T03:16:29;8.20;99.90
24252;DHT22;12380;51.118;4.176;2023-03-29T03:18:58;8.20;99.90
24252;DHT22;12380;51.118;4.176;2023-03-29T03:21:25;8.30;99.90
24252;DHT22;12380;51.118;4.176;2023-03-29T03:23:53;8.30;99.90
24252;DHT22;12380;51.118;4.176;2023-03-29T03:26:20;8.30;99.90
24252;DHT22;12380;51.118;4.176;2023-03-29T03:28:46;8.30;99.90
24252;DHT22;12380;51.118;4.176;2023-03-29T03:31:13;8.30;99.90
24252;DHT22;12380;51.118;4.176;2023-03-29T03:33:39;8.40;99.90
24252;DHT22;12380;51.118;4.176;2023-03-29T03:36:07;8.20;99.90
24252;DHT22;12380;51.118;4.176;2023-03-29T03:38:35;8.20;99.90
24252;DHT22;12380;51.118;4.176;2023-03-29T03:41:06;8.20;99.90
24252;DHT22;12380;51.118;4.176;2023-03-29T03:43:34;8.20;99.90
24252;DHT22;12380;51.118;4.176;2023-03-29T03:46:03;8.20;99.90
24252;DHT22;12380;51.118;4.176;2023-03-29T03:48:32;8.20;99.90
24252;DHT22;12380;51.118;4.176;2023-03-29T03:50:58;8.10;99.90
24252;DHT22;12380;51.118;4.176;2023-03-29T03:53:25;8.10;99.90
24252;DHT22;12380;51.118;4.176;2023-03-29T03:55:54;8.20;99.90
24252;DHT22;12380;51.118;4.176;2023-03-29T03:58:22;8.20;99.90
24252;DHT22;12380;51.118;4.176;2023-03-29T04:00:49;8.20;99.90
24252;DHT22;12380;51.118;4.176;2023-03-29T04:03:16;8.30;99.90
24252;DHT22;12380;51.118;4.176;2023-03-29T04:05:43;8.30;99.90
24252;DHT22;12380;51.118;4.176;2023-03-29T04:08:10;8.30;99.90
24252;DHT22;12380;51.118;4.176;2023-03-29T04:10:39;8.30;99.90
24252;DHT22;12380;51.118;4.176;2023-03-29T04:13:08;8.40;99.90
24252;DHT22;12380;51.118;4.176;2023-03-29T04:15:35;8.40;99.90
24252;DHT22;12380;51.118;4.176;2023-03-29T04:18:05;8.30;99.90
24252;DHT22;12380;51.118;4.176;2023-03-29T04:20:31;8.20;99.90
24252;DHT22;12380;51.118;4.176;2023-03-29T04:23:02;8.30;99.90
24252;DHT22;12380;51.118;4.176;2023-03-29T04:25:28;8.40;99.90
24252;DHT22;12380;51.118;4.176;2023-03-29T04:27:56;8.40;99.90
24252;DHT22;12380;51.118;4.176;2023-03-29T04:30:22;8.50;99.90
24252;DHT22;12380;51.118;4.176;2023-03-29T04:32:50;8.40;99.90
24252;DHT22;12380;51.118;4.176;2023-03-29T04:35:16;8.30;99.90
24252;DHT22;12380;51.118;4.176;2023-03-29T04:37:42;8.20;99.90
24252;DHT22;12380;51.118;4.176;2023-03-29T04:40:08;8.20;99.90
24252;DHT22;12380;51.118;4.176;2023-03-29T04:42:37;8.30;99.90
24252;DHT22;12380;51.118;4.176;2023-03-29T04:45:04;8.40;99.90
24252;DHT22;12380;51.118;4.176;2023-03-29T04:47:32;8.40;99.90
24252;DHT22;12380;51.118;4.176;2023-03-29T04:50:01;8.40;99.90
24252;DHT22;12380;51.118;4.176;2023-03-29T04:52:29;8.40;99.90
24252;DHT22;12380;51.118;4.176;2023-03-29T04:55:00;8.50;99.90
24252;DHT22;12380;51.118;4.176;2023-03-29T04:57:26;8.50;99.90
24252;DHT22;12380;51.118;4.176;2023-03-29T04:59:52;8.50;99.90
24252;DHT22;12380;51.118;4.176;2023-03-29T05:02:18;8.50;99.90
24252;DHT22;12380;51.118;4.176;2023-03-29T05:04:46;8.40;99.90
24252;DHT22;12380;51.118;4.176;2023-03-29T05:07:13;8.40;99.90
24252;DHT22;12380;51.118;4.176;2023-03-29T05:09:45;8.50;99.90
24252;DHT22;12380;51.118;4.176;2023-03-29T05:12:16;8.60;99.90
24252;DHT22;12380;51.118;4.176;2023-03-29T05:14:44;8.50;99.90
24252;DHT22;12380;51.118;4.176;2023-03-29T05:17:10;8.40;99.90
24252;DHT22;12380;51.118;4.176;2023-03-29T05:19:35;8.40;99.90
24252;DHT22;12380;51.118;4.176;2023-03-29T05:22:02;8.50;99.90
24252;DHT22;12380;51.118;4.176;2023-03-29T05:24:28;8.50;99.90
24252;DHT22;12380;51.118;4.176;2023-03-29T05:26:54;8.50;99.90
24252;DHT22;12380;51.118;4.176;2023-03-29T05:29:22;8.50;99.90
24252;DHT22;12380;51.118;4.176;2023-03-29T05:31:48;8.40;99.90
24252;DHT22;12380;51.118;4.176;2023-03-29T05:34:16;8.40;99.90
24252;DHT22;12380;51.118;4.176;2023-03-29T05:36:42;8.50;99.90
24252;DHT22;12380;51.118;4.176;2023-03-29T05:39:10;8.50;99.90
24252;DHT22;12380;51.118;4.176;2023-03-29T05:41:35;8.50;99.90
24252;DHT22;12380;51.118;4.176;2023-03-29T05:44:01;8.50;99.90
24252;DHT22;12380;51.118;4.176;2023-03-29T05:46:27;8.60;99.90
24252;DHT22;12380;51.118;4.176;2023-03-29T05:48:53;8.50;99.90
24252;DHT22;12380;51.118;4.176;2023-03-29T05:51:19;8.60;99.90
24252;DHT22;12380;51.118;4.176;2023-03-29T05:53:49;8.60;99.90
24252;DHT22;12380;51.118;4.176;2023-03-29T05:56:15;8.50;99.90
24252;DHT22;12380;51.118;4.176;2023-03-29T05:58:44;8.60;99.90
24252;DHT22;12380;51.118;4.176;2023-03-29T06:01:12;8.60;99.90
24252;DHT22;12380;51.118;4.176;2023-03-29T06:03:42;8.60;99.90
24252;DHT22;12380;51.118;4.176;2023-03-29T06:06:10;8.70;99.90
24252;DHT22;12380;51.118;4.176;2023-03-29T06:08:40;8.60;99.90
24252;DHT22;12380;51.118;4.176;2023-03-29T06:11:06;8.70;99.90
24252;DHT22;12380;51.118;4.176;2023-03-29T06:13:35;8.70;99.90
24252;DHT22;12380;51.118;4.176;2023-03-29T06:16:05;8.60;99.90
24252;DHT22;12380;51.118;4.176;2023-03-29T06:18:32;8.70;99.90
24252;DHT22;12380;51.118;4.176;2023-03-29T06:20:58;8.70;99.90
24252;DHT22;12380;51.118;4.176;2023-03-29T06:23:23;8.80;99.90
24252;DHT22;12380;51.118;4.176;2023-03-29T06:25:49;8.80;99.90
24252;DHT22;12380;51.118;4.176;2023-03-29T06:28:18;8.80;99.90
24252;DHT22;12380;51.118;4.176;2023-03-29T06:30:44;8.90;99.90
24252;DHT22;12380;51.118;4.176;2023-03-29T06:33:13;8.90;99.90
24252;DHT22;12380;51.118;4.176;2023-03-29T06:35:42;9.00;99.90
24252;DHT22;12380;51.118;4.176;2023-03-29T06:38:12;9.00;99.90
24252;DHT22;12380;51.118;4.176;2023-03-29T06:40:39;9.20;99.90
24252;DHT22;12380;51.118;4.176;2023-03-29T06:43:05;9.20;99.90
24252;DHT22;12380;51.118;4.176;2023-03-29T06:45:33;9.20;99.90
24252;DHT22;12380;51.118;4.176;2023-03-29T06:47:59;9.20;99.90
24252;DHT22;12380;51.118;4.176;2023-03-29T06:50:26;9.20;99.90
24252;DHT22;12380;51.118;4.176;2023-03-29T06:52:52;9.20;99.90
24252;DHT22;12380;51.118;4.176;2023-03-29T06:55:18;9.20;99.90
24252;DHT22;12380;51.118;4.176;2023-03-29T06:57:45;9.20;99.90
24252;DHT22;12380;51.118;4.176;2023-03-29T07:00:14;9.30;99.90
24252;DHT22;12380;51.118;4.176;2023-03-29T07:02:52;9.40;99.90
24252;DHT22;12380;51.118;4.176;2023-03-29T07:05:21;9.40;99.90
24252;DHT22;12380;51.118;4.176;2023-03-29T07:07:48;9.50;99.90
24252;DHT22;12380;51.118;4.176;2023-03-29T07:10:25;9.50;99.90
24252;DHT22;12380;51.118;4.176;2023-03-29T07:12:56;9.50;99.90
24252;DHT22;12380;51.118;4.176;2023-03-29T07:15:22;9.40;99.90
24252;DHT22;12380;51.118;4.176;2023-03-29T07:17:48;9.30;99.90
24252;DHT22;12380;51.118;4.176;2023-03-29T07:20:14;9.40;99.90
24252;DHT22;12380;51.118;4.176;2023-03-29T07:22:41;9.40;99.90
24252;DHT22;12380;51.118;4.176;2023-03-29T07:25:08;9.50;99.90
24252;DHT22;12380;51.118;4.176;2023-03-29T07:27:37;9.40;99.90
24252;DHT22;12380;51.118;4.176;2023-03-29T07:30:05;9.30;99.90
24252;DHT22;12380;51.118;4.176;2023-03-29T07:32:35;9.20;99.90
24252;DHT22;12380;51.118;4.176;2023-03-29T07:35:05;9.30;99.90
24252;DHT22;12380;51.118;4.176;2023-03-29T07:37:33;9.30;99.90
24252;DHT22;12380;51.118;4.176;2023-03-29T07:40:04;9.30;99.90
24252;DHT22;12380;51.118;4.176;2023-03-29T07:42:37;9.10;99.90
24252;DHT22;12380;51.118;4.176;2023-03-29T07:45:04;9.10;99.90
24252;DHT22;12380;51.118;4.176;2023-03-29T07:47:33;9.20;99.90
24252;DHT22;12380;51.118;4.176;2023-03-29T07:49:59;9.20;99.90
24252;DHT22;12380;51.118;4.176;2023-03-29T07:52:26;9.20;99.90
24252;DHT22;12380;51.118;4.176;2023-03-29T07:54:57;9.20;99.90
24252;DHT22;12380;51.118;4.176;2023-03-29T07:57:24;9.20;99.90
24252;DHT22;12380;51.118;4.176;2023-03-29T07:59:51;9.40;99.90
24252;DHT22;12380;51.118;4.176;2023-03-29T08:02:16;9.50;99.90
24252;DHT22;12380;51.118;4.176;2023-03-29T08:04:46;9.50;99.90
24252;DHT22;12380;51.118;4.176;2023-03-29T08:07:12;9.50;99.90
24252;DHT22;12380;51.118;4.176;2023-03-29T08:09:38;9.40;99.90
24252;DHT22;12380;51.118;4.176;2023-03-29T08:12:04;9.40;99.90
24252;DHT22;12380;51.118;4.176;2023-03-29T08:14:30;9.50;99.90
24252;DHT22;12380;51.118;4.176;2023-03-29T08:16:56;9.60;99.90
24252;DHT22;12380;51.118;4.176;2023-03-29T08:19:23;9.50;99.90
24252;DHT22;12380;51.118;4.176;2023-03-29T08:21:49;9.70;99.90
24252;DHT22;12380;51.118;4.176;2023-03-29T08:24:17;9.80;99.90
24252;DHT22;12380;51.118;4.176;2023-03-29T08:26:43;9.80;99.90
24252;DHT22;12380;51.118;4.176;2023-03-29T08:29:13;9.80;99.90
24252;DHT22;12380;51.118;4.176;2023-03-29T08:31:39;9.80;99.90
24252;DHT22;12380;51.118;4.176;2023-03-29T08:34:04;10.00;99.90
24252;DHT22;12380;51.118;4.176;2023-03-29T08:36:31;10.30;99.90
24252;DHT22;12380;51.118;4.176;2023-03-29T08:38:57;10.40;99.90
24252;DHT22;12380;51.118;4.176;2023-03-29T08:41:32;10.50;99.90
24252;DHT22;12380;51.118;4.176;2023-03-29T08:49:24;11.00;99.90
24252;DHT22;12380;51.118;4.176;2023-03-29T08:51:57;11.00;99.90
24252;DHT22;12380;51.118;4.176;2023-03-29T08:54:27;11.20;99.90
24252;DHT22;12380;51.118;4.176;2023-03-29T08:57:00;11.20;99.90
24252;DHT22;12380;51.118;4.176;2023-03-29T08:59:30;11.40;99.90
24252;DHT22;12380;51.118;4.176;2023-03-29T09:01:58;11.50;99.90
24252;DHT22;12380;51.118;4.176;2023-03-29T09:04:34;11.40;99.90
24252;DHT22;12380;51.118;4.176;2023-03-29T09:07:04;11.50;99.90
24252;DHT22;12380;51.118;4.176;2023-03-29T09:09:33;11.50;99.90
24252;DHT22;12380;51.118;4.176;2023-03-29T09:15:15;11.70;99.90
24252;DHT22;12380;51.118;4.176;2023-03-29T09:18:09;11.70;99.90
24252;DHT22;12380;51.118;4.176;2023-03-29T09:23:55;11.80;99.90
24252;DHT22;12380;51.118;4.176;2023-03-29T09:29:22;11.80;99.90
24252;DHT22;12380;51.118;4.176;2023-03-29T09:31:50;12.00;99.90
24252;DHT22;12380;51.118;4.176;2023-03-29T09:34:30;12.20;99.90
24252;DHT22;12380;51.118;4.176;2023-03-29T09:37:10;12.40;99.90
24252;DHT22;12380;51.118;4.176;2023-03-29T09:39:37;12.40;99.90
24252;DHT22;12380;51.118;4.176;2023-03-29T09:42:08;12.80;99.90
24252;DHT22;12380;51.118;4.176;2023-03-29T09:47:23;13.20;99.90
24252;DHT22;12380;51.118;4.176;2023-03-29T09:49:55;13.40;99.90
24252;DHT22;12380;51.118;4.176;2023-03-29T09:52:23;13.40;99.90
24252;DHT22;12380;51.118;4.176;2023-03-29T09:54:49;13.90;99.90
24252;DHT22;12380;51.118;4.176;2023-03-29T09:57:16;14.40;99.90
24252;DHT22;12380;51.118;4.176;2023-03-29T09:59:49;14.20;99.90
24252;DHT22;12380;51.118;4.176;2023-03-29T10:02:18;14.10;99.90
24252;DHT22;12380;51.118;4.176;2023-03-29T10:04:44;14.30;99.90
24252;DHT22;12380;51.118;4.176;2023-03-29T10:07:19;14.30;99.90
24252;DHT22;12380;51.118;4.176;2023-03-29T10:09:47;14.50;99.90
24252;DHT22;12380;51.118;4.176;2023-03-29T10:12:15;14.80;99.90
24252;DHT22;12380;51.118;4.176;2023-03-29T10:14:46;14.90;99.90
24252;DHT22;12380;51.118;4.176;2023-03-29T10:17:22;14.90;99.90
24252;DHT22;12380;51.118;4.176;2023-03-29T10:19:54;14.60;99.90
24252;DHT22;12380;51.118;4.176;2023-03-29T10:22:24;14.40;99.90
24252;DHT22;12380;51.118;4.176;2023-03-29T10:24:52;14.40;99.90
24252;DHT22;12380;51.118;4.176;2023-03-29T10:27:27;14.40;99.90
24252;DHT22;12380;51.118;4.176;2023-03-29T10:29:54;14.60;99.90
24252;DHT22;12380;51.118;4.176;2023-03-29T10:34:48;14.90;99.90
24252;DHT22;12380;51.118;4.176;2023-03-29T10:37:19;15.20;99.90
24252;DHT22;12380;51.118;4.176;2023-03-29T10:39:48;15.40;99.90
24252;DHT22;12380;51.118;4.176;2023-03-29T10:42:18;15.70;99.90
24252;DHT22;12380;51.118;4.176;2023-03-29T10:44:55;15.30;99.90
24252;DHT22;12380;51.118;4.176;2023-03-29T10:47:22;15.00;99.90
24252;DHT22;12380;51.118;4.176;2023-03-29T10:49:52;15.10;99.90
24252;DHT22;12380;51.118;4.176;2023-03-29T10:52:19;15.30;99.90
24252;DHT22;12380;51.118;4.176;2023-03-29T10:54:47;15.30;99.90
24252;DHT22;12380;51.118;4.176;2023-03-29T10:57:32;15.10;99.90
24252;DHT22;12380;51.118;4.176;2023-03-29T11:05:55;15.20;99.90
24252;DHT22;12380;51.118;4.176;2023-03-29T11:08:37;15.60;99.90
24252;DHT22;12380;51.118;4.176;2023-03-29T11:16:59;15.60;99.90
24252;DHT22;12380;51.118;4.176;2023-03-29T11:22:28;15.80;99.90
24252;DHT22;12380;51.118;4.176;2023-03-29T11:30:59;15.90;99.90
24252;DHT22;12380;51.118;4.176;2023-03-29T11:40:01;15.60;99.90
24252;DHT22;12380;51.118;4.176;2023-03-29T11:42:19;15.60;99.90
24252;DHT22;12380;51.118;4.176;2023-03-29T11:44:47;15.70;99.90
24252;DHT22;12380;51.118;4.176;2023-03-29T11:47:25;15.60;99.90
24252;DHT22;12380;51.118;4.176;2023-03-29T11:57:46;15.80;99.90
24252;DHT22;12380;51.118;4.176;2023-03-29T12:02:48;15.70;99.90
24252;DHT22;12380;51.118;4.176;2023-03-29T12:05:22;15.80;99.90
24252;DHT22;12380;51.118;4.176;2023-03-29T12:08:17;15.70;99.90
24252;DHT22;12380;51.118;4.176;2023-03-29T12:14:11;16.10;99.90
24252;DHT22;12380;51.118;4.176;2023-03-29T12:16:43;15.70;99.90
24252;DHT22;12380;51.118;4.176;2023-03-29T12:21:52;15.50;99.90
24252;DHT22;12380;51.118;4.176;2023-03-29T12:24:20;15.50;99.90
24252;DHT22;12380;51.118;4.176;2023-03-29T12:27:06;15.60;99.90
24252;DHT22;12380;51.118;4.176;2023-03-29T12:32:42;16.10;99.90
24252;DHT22;12380;51.118;4.176;2023-03-29T12:35:40;16.40;99.90
24252;DHT22;12380;51.118;4.176;2023-03-29T12:40:45;17.10;99.90
24252;DHT22;12380;51.118;4.176;2023-03-29T12:45:45;16.60;99.90
24252;DHT22;12380;51.118;4.176;2023-03-29T12:48:21;16.10;99.90
24252;DHT22;12380;51.118;4.176;2023-03-29T12:51:09;16.20;99.90
24252;DHT22;12380;51.118;4.176;2023-03-29T12:53:53;16.10;99.90
24252;DHT22;12380;51.118;4.176;2023-03-29T12:56:22;16.00;99.90
24252;DHT22;12380;51.118;4.176;2023-03-29T13:01:35;16.30;99.90
24252;DHT22;12380;51.118;4.176;2023-03-29T13:14:43;16.40;99.90
24252;DHT22;12380;51.118;4.176;2023-03-29T13:17:32;16.30;99.90
24252;DHT22;12380;51.118;4.176;2023-03-29T13:20:30;16.10;99.90
24252;DHT22;12380;51.118;4.176;2023-03-29T13:39:52;15.70;99.90
24252;DHT22;12380;51.118;4.176;2023-03-29T13:42:53;15.60;99.90
24252;DHT22;12380;51.118;4.176;2023-03-29T13:45:36;16.00;99.90
24252;DHT22;12380;51.118;4.176;2023-03-29T13:55:58;16.50;99.90
24252;DHT22;12380;51.118;4.176;2023-03-29T13:58:45;16.50;99.90
24252;DHT22;12380;51.118;4.176;2023-03-29T14:01:19;16.50;99.90
24252;DHT22;12380;51.118;4.176;2023-03-29T14:03:49;16.80;99.90
24252;DHT22;12380;51.118;4.176;2023-03-29T14:06:23;16.60;99.90
24252;DHT22;12380;51.118;4.176;2023-03-29T14:08:51;16.40;99.90
24252;DHT22;12380;51.118;4.176;2023-03-29T14:11:24;16.40;99.90
24252;DHT22;12380;51.118;4.176;2023-03-29T14:13:55;16.40;99.90
24252;DHT22;12380;51.118;4.176;2023-03-29T14:16:24;16.20;99.90
24252;DHT22;12380;51.118;4.176;2023-03-29T14:18:51;16.30;99.90
24252;DHT22;12380;51.118;4.176;2023-03-29T14:21:19;16.30;99.90
24252;DHT22;12380;51.118;4.176;2023-03-29T14:23:53;16.50;99.90
24252;DHT22;12380;51.118;4.176;2023-03-29T14:26:22;16.60;99.90
24252;DHT22;12380;51.118;4.176;2023-03-29T14:28:53;16.60;99.90
24252;DHT22;12380;51.118;4.176;2023-03-29T14:33:56;16.70;99.90
24252;DHT22;12380;51.118;4.176;2023-03-29T14:36:23;16.80;99.90
24252;DHT22;12380;51.118;4.176;2023-03-29T14:38:55;16.70;99.90
24252;DHT22;12380;51.118;4.176;2023-03-29T14:41:32;16.60;99.90
24252;DHT22;12380;51.118;4.176;2023-03-29T14:43:59;16.80;99.90
24252;DHT22;12380;51.118;4.176;2023-03-29T14:46:25;16.80;99.90
24252;DHT22;12380;51.118;4.176;2023-03-29T14:48:52;16.80;99.90
24252;DHT22;12380;51.118;4.176;2023-03-29T14:51:19;16.90;99.90
24252;DHT22;12380;51.118;4.176;2023-03-29T14:53:51;16.90;99.90
24252;DHT22;12380;51.118;4.176;2023-03-29T14:56:20;16.90;99.90
24252;DHT22;12380;51.118;4.176;2023-03-29T14:58:48;16.90;99.90
24252;DHT22;12380;51.118;4.176;2023-03-29T15:01:23;16.80;99.90
24252;DHT22;12380;51.118;4.176;2023-03-29T15:06:23;16.80;99.90
24252;DHT22;12380;51.118;4.176;2023-03-29T15:08:50;16.80;99.90
24252;DHT22;12380;51.118;4.176;2023-03-29T15:11:21;16.90;99.90
24252;DHT22;12380;51.118;4.176;2023-03-29T15:13:50;16.90;99.90
24252;DHT22;12380;51.118;4.176;2023-03-29T15:16:19;17.10;99.90
24252;DHT22;12380;51.118;4.176;2023-03-29T15:18:50;17.10;99.90
24252;DHT22;12380;51.118;4.176;2023-03-29T15:21:19;17.20;99.90
24252;DHT22;12380;51.118;4.176;2023-03-29T15:23:56;17.30;99.90
24252;DHT22;12380;51.118;4.176;2023-03-29T15:26:30;17.30;99.90
24252;DHT22;12380;51.118;4.176;2023-03-29T15:29:15;17.20;99.90
24252;DHT22;12380;51.118;4.176;2023-03-29T15:31:55;17.30;99.90
24252;DHT22;12380;51.118;4.176;2023-03-29T15:34:28;17.40;99.90
24252;DHT22;12380;51.118;4.176;2023-03-29T15:36:55;17.40;99.90
24252;DHT22;12380;51.118;4.176;2023-03-29T15:39:24;17.40;99.90
24252;DHT22;12380;51.118;4.176;2023-03-29T15:41:52;17.50;99.90
24252;DHT22;12380;51.118;4.176;2023-03-29T15:44:30;17.70;99.90
24252;DHT22;12380;51.118;4.176;2023-03-29T15:46:57;17.80;99.90
24252;DHT22;12380;51.118;4.176;2023-03-29T15:49:24;17.80;99.90
24252;DHT22;12380;51.118;4.176;2023-03-29T15:51:51;17.60;99.90
24252;DHT22;12380;51.118;4.176;2023-03-29T15:54:21;17.50;99.90
24252;DHT22;12380;51.118;4.176;2023-03-29T15:56:52;17.40;99.90
24252;DHT22;12380;51.118;4.176;2023-03-29T15:59:20;17.50;99.90
24252;DHT22;12380;51.118;4.176;2023-03-29T16:01:46;17.30;99.90
24252;DHT22;12380;51.118;4.176;2023-03-29T16:04:15;17.20;99.90
24252;DHT22;12380;51.118;4.176;2023-03-29T16:06:43;17.20;99.90
24252;DHT22;12380;51.118;4.176;2023-03-29T16:09:09;17.00;99.90
24252;DHT22;12380;51.118;4.176;2023-03-29T16:11:37;16.90;99.90
24252;DHT22;12380;51.118;4.176;2023-03-29T16:16:46;16.70;99.90
24252;DHT22;12380;51.118;4.176;2023-03-29T16:19:11;16.70;99.90
24252;DHT22;12380;51.118;4.176;2023-03-29T16:21:42;16.70;99.90
24252;DHT22;12380;51.118;4.176;2023-03-29T16:24:24;16.70;99.90
24252;DHT22;12380;51.118;4.176;2023-03-29T16:26:51;16.70;99.90
24252;DHT22;12380;51.118;4.176;2023-03-29T16:29:17;16.60;99.90
24252;DHT22;12380;51.118;4.176;2023-03-29T16:31:45;16.60;99.90
24252;DHT22;12380;51.118;4.176;2023-03-29T16:34:12;16.50;99.90
24252;DHT22;12380;51.118;4.176;2023-03-29T16:36:39;16.60;99.90
24252;DHT22;12380;51.118;4.176;2023-03-29T16:39:05;16.60;99.90
24252;DHT22;12380;51.118;4.176;2023-03-29T16:41:35;16.60;99.90
24252;DHT22;12380;51.118;4.176;2023-03-29T16:44:02;16.60;99.90
24252;DHT22;12380;51.118;4.176;2023-03-29T16:46:30;16.60;99.90
24252;DHT22;12380;51.118;4.176;2023-03-29T16:48:56;16.50;99.90
24252;DHT22;12380;51.118;4.176;2023-03-29T16:51:27;16.50;99.90
24252;DHT22;12380;51.118;4.176;2023-03-29T16:53:58;16.50;99.90
24252;DHT22;12380;51.118;4.176;2023-03-29T16:56:27;16.50;99.90
24252;DHT22;12380;51.118;4.176;2023-03-29T16:58:54;16.40;99.90
24252;DHT22;12380;51.118;4.176;2023-03-29T17:01:20;16.30;99.90
24252;DHT22;12380;51.118;4.176;2023-03-29T17:03:48;16.30;99.90
24252;DHT22;12380;51.118;4.176;2023-03-29T17:06:18;16.30;99.90
24252;DHT22;12380;51.118;4.176;2023-03-29T17:08:44;16.20;99.90
24252;DHT22;12380;51.118;4.176;2023-03-29T17:11:12;16.30;99.90
24252;DHT22;12380;51.118;4.176;2023-03-29T17:13:38;16.30;99.90
24252;DHT22;12380;51.118;4.176;2023-03-29T17:16:04;16.20;99.90
24252;DHT22;12380;51.118;4.176;2023-03-29T17:18:32;16.20;99.90
24252;DHT22;12380;51.118;4.176;2023-03-29T17:20:58;16.10;99.90
24252;DHT22;12380;51.118;4.176;2023-03-29T17:23:24;16.10;99.90
24252;DHT22;12380;51.118;4.176;2023-03-29T17:25:50;16.00;99.90
24252;DHT22;12380;51.118;4.176;2023-03-29T17:28:17;16.00;99.90
24252;DHT22;12380;51.118;4.176;2023-03-29T17:30:44;15.90;99.90
24252;DHT22;12380;51.118;4.176;2023-03-29T17:33:13;15.90;99.90
24252;DHT22;12380;51.118;4.176;2023-03-29T17:35:43;15.90;99.90
24252;DHT22;12380;51.118;4.176;2023-03-29T17:38:10;15.80;99.90
24252;DHT22;12380;51.118;4.176;2023-03-29T17:40:36;15.80;99.90
24252;DHT22;12380;51.118;4.176;2023-03-29T17:43:04;15.80;99.90
24252;DHT22;12380;51.118;4.176;2023-03-29T17:45:30;15.80;99.90
24252;DHT22;12380;51.118;4.176;2023-03-29T17:47:59;15.80;99.90
24252;DHT22;12380;51.118;4.176;2023-03-29T17:50:24;15.70;99.90
24252;DHT22;12380;51.118;4.176;2023-03-29T17:52:50;15.60;99.90
24252;DHT22;12380;51.118;4.176;2023-03-29T17:55:18;15.60;99.90
24252;DHT22;12380;51.118;4.176;2023-03-29T17:57:45;15.70;99.90
24252;DHT22;12380;51.118;4.176;2023-03-29T18:00:12;15.60;99.90
24252;DHT22;12380;51.118;4.176;2023-03-29T18:02:39;15.60;99.90
24252;DHT22;12380;51.118;4.176;2023-03-29T18:05:08;15.60;99.90
24252;DHT22;12380;51.118;4.176;2023-03-29T18:07:36;15.60;99.90
24252;DHT22;12380;51.118;4.176;2023-03-29T18:10:02;15.50;99.90
24252;DHT22;12380;51.118;4.176;2023-03-29T18:12:28;15.60;99.90